sensor_id;sensor_type;location;lat;lon;timestamp;P1;durP1;ratioP1;P2;durP2;ratioP2
74749;SDS011;63269;53.330;-6.288;2023-12-04T00:00:39;2.17;;;1.27;;
74749;SDS011;63269;53.330;-6.288;2023-12-04T00:03:05;2.38;;;1.10;;
74749;SDS011;63269;53.330;-6.288;2023-12-04T00:05:30;2.05;;;1.08;;
74749;SDS011;63269;53.330;-6.288;2023-12-04T00:07:55;2.25;;;1.00;;
74749;SDS011;63269;53.330;-6.288;2023-12-04T00:10:21;2.60;;;1.17;;
74749;SDS011;63269;53.330;-6.288;2023-12-04T00:12:46;3.05;;;1.10;;
74749;SDS011;63269;53.330;-6.288;2023-12-04T00:15:12;2.75;;;1.20;;
74749;SDS011;63269;53.330;-6.288;2023-12-04T00:17:37;1.77;;;0.98;;
74749;SDS011;63269;53.330;-6.288;2023-12-04T00:20:08;2.30;;;1.10;;
74749;SDS011;63269;53.330;-6.288;2023-12-04T00:22:34;1.50;;;0.80;;
74749;SDS011;63269;53.330;-6.288;2023-12-04T00:25:01;3.03;;;0.88;;
74749;SDS011;63269;53.330;-6.288;2023-12-04T00:27:28;2.42;;;1.00;;
74749;SDS011;63269;53.330;-6.288;2023-12-04T00:29:53;2.70;;;0.80;;
74749;SDS011;63269;53.330;-6.288;2023-12-04T00:32:19;1.67;;;0.70;;
74749;SDS011;63269;53.330;-6.288;2023-12-04T00:34:44;2.80;;;0.98;;
74749;SDS011;63269;53.330;-6.288;2023-12-04T00:37:10;1.90;;;0.93;;
74749;SDS011;63269;53.330;-6.288;2023-12-04T00:39:35;1.90;;;0.85;;
74749;SDS011;63269;53.330;-6.288;2023-12-04T00:42:01;1.42;;;0.82;;
74749;SDS011;63269;53.330;-6.288;2023-12-04T00:44:26;1.65;;;0.82;;
74749;SDS011;63269;53.330;-6.288;2023-12-04T00:46:51;1.85;;;1.00;;
74749;SDS011;63269;53.330;-6.288;2023-12-04T00:49:17;1.63;;;0.80;;
74749;SDS011;63269;53.330;-6.288;2023-12-04T00:51:42;2.08;;;0.90;;
74749;SDS011;63269;53.330;-6.288;2023-12-04T00:54:08;1.70;;;0.75;;
74749;SDS011;63269;53.330;-6.288;2023-12-04T00:56:33;1.95;;;0.88;;
74749;SDS011;63269;53.330;-6.288;2023-12-04T00:58:59;2.13;;;1.05;;
74749;SDS011;63269;53.330;-6.288;2023-12-04T01:01:24;1.95;;;0.80;;
74749;SDS011;63269;53.330;-6.288;2023-12-04T01:03:50;1.63;;;0.85;;
74749;SDS011;63269;53.330;-6.288;2023-12-04T01:06:21;2.25;;;0.88;;
74749;SDS011;63269;53.330;-6.288;2023-12-04T01:08:48;2.08;;;0.82;;
74749;SDS011;63269;53.330;-6.288;2023-12-04T01:11:15;2.78;;;0.75;;
74749;SDS011;63269;53.330;-6.288;2023-12-04T01:13:42;3.47;;;1.00;;
74749;SDS011;63269;53.330;-6.288;2023-12-04T01:16:08;1.92;;;0.82;;
74749;SDS011;63269;53.330;-6.288;2023-12-04T01:18:34;2.28;;;1.23;;
74749;SDS011;63269;53.330;-6.288;2023-12-04T01:20:59;4.32;;;1.08;;
74749;SDS011;63269;53.330;-6.288;2023-12-04T01:23:25;3.53;;;0.80;;
74749;SDS011;63269;53.330;-6.288;2023-12-04T01:25:50;1.27;;;0.85;;
74749;SDS011;63269;53.330;-6.288;2023-12-04T01:28:16;1.98;;;0.70;;
74749;SDS011;63269;53.330;-6.288;2023-12-04T01:30:41;2.47;;;1.33;;
74749;SDS011;63269;53.330;-6.288;2023-12-04T01:33:07;3.30;;;0.80;;
74749;SDS011;63269;53.330;-6.288;2023-12-04T01:35:33;2.03;;;0.77;;
74749;SDS011;63269;53.330;-6.288;2023-12-04T01:37:58;1.35;;;0.68;;
74749;SDS011;63269;53.330;-6.288;2023-12-04T01:40:24;2.95;;;1.02;;
74749;SDS011;63269;53.330;-6.288;2023-12-04T01:42:49;1.13;;;0.70;;
74749;SDS011;63269;53.330;-6.288;2023-12-04T01:45:15;1.77;;;0.90;;
74749;SDS011;63269;53.330;-6.288;2023-12-04T01:47:41;1.42;;;0.73;;
74749;SDS011;63269;53.330;-6.288;2023-12-04T01:50:07;0.80;;;0.57;;
74749;SDS011;63269;53.330;-6.288;2023-12-04T01:52:33;1.90;;;1.05;;
74749;SDS011;63269;53.330;-6.288;2023-12-04T01:55:00;1.58;;;0.70;;
74749;SDS011;63269;53.330;-6.288;2023-12-04T01:57:25;1.30;;;0.70;;
74749;SDS011;63269;53.330;-6.288;2023-12-04T01:59:51;2.85;;;0.95;;
74749;SDS011;63269;53.330;-6.288;2023-12-04T02:02:16;2.25;;;0.57;;
74749;SDS011;63269;53.330;-6.288;2023-12-04T02:04:42;1.65;;;0.70;;
74749;SDS011;63269;53.330;-6.288;2023-12-04T02:07:08;1.52;;;0.73;;
74749;SDS011;63269;53.330;-6.288;2023-12-04T02:09:34;1.58;;;0.75;;
74749;SDS011;63269;53.330;-6.288;2023-12-04T02:12:00;2.47;;;0.50;;
74749;SDS011;63269;53.330;-6.288;2023-12-04T02:14:25;1.17;;;0.60;;
74749;SDS011;63269;53.330;-6.288;2023-12-04T02:16:51;2.17;;;0.68;;
74749;SDS011;63269;53.330;-6.288;2023-12-04T02:19:19;1.38;;;0.70;;
74749;SDS011;63269;53.330;-6.288;2023-12-04T02:21:45;1.23;;;0.65;;
74749;SDS011;63269;53.330;-6.288;2023-12-04T02:24:11;1.42;;;0.75;;
74749;SDS011;63269;53.330;-6.288;2023-12-04T02:26:42;2.45;;;0.90;;
74749;SDS011;63269;53.330;-6.288;2023-12-04T02:29:11;2.15;;;0.63;;
74749;SDS011;63269;53.330;-6.288;2023-12-04T02:31:43;1.08;;;0.60;;
74749;SDS011;63269;53.330;-6.288;2023-12-04T02:34:09;2.50;;;0.80;;
74749;SDS011;63269;53.330;-6.288;2023-12-04T02:36:38;2.00;;;0.82;;
74749;SDS011;63269;53.330;-6.288;2023-12-04T02:39:05;1.10;;;0.65;;
74749;SDS011;63269;53.330;-6.288;2023-12-04T02:41:31;3.25;;;1.10;;
74749;SDS011;63269;53.330;-6.288;2023-12-04T02:43:57;1.58;;;0.60;;
74749;SDS011;63269;53.330;-6.288;2023-12-04T02:46:22;4.07;;;1.20;;
74749;SDS011;63269;53.330;-6.288;2023-12-04T02:48:48;1.45;;;0.90;;
74749;SDS011;63269;53.330;-6.288;2023-12-04T02:51:13;1.77;;;0.70;;
74749;SDS011;63269;53.330;-6.288;2023-12-04T02:53:39;1.70;;;0.98;;
74749;SDS011;63269;53.330;-6.288;2023-12-04T02:56:04;1.95;;;0.80;;
74749;SDS011;63269;53.330;-6.288;2023-12-04T02:58:30;2.15;;;0.90;;
74749;SDS011;63269;53.330;-6.288;2023-12-04T03:00:55;4.57;;;0.82;;
74749;SDS011;63269;53.330;-6.288;2023-12-04T03:03:22;1.95;;;0.60;;
74749;SDS011;63269;53.330;-6.288;2023-12-04T03:05:48;1.85;;;0.70;;
74749;SDS011;63269;53.330;-6.288;2023-12-04T03:08:13;1.52;;;0.70;;
74749;SDS011;63269;53.330;-6.288;2023-12-04T03:10:38;3.20;;;0.85;;
74749;SDS011;63269;53.330;-6.288;2023-12-04T03:13:04;1.33;;;0.60;;
74749;SDS011;63269;53.330;-6.288;2023-12-04T03:15:29;2.00;;;0.50;;
74749;SDS011;63269;53.330;-6.288;2023-12-04T03:17:55;1.40;;;0.63;;
74749;SDS011;63269;53.330;-6.288;2023-12-04T03:20:21;3.22;;;0.73;;
74749;SDS011;63269;53.330;-6.288;2023-12-04T03:22:46;3.55;;;0.75;;
74749;SDS011;63269;53.330;-6.288;2023-12-04T03:25:12;2.00;;;0.65;;
74749;SDS011;63269;53.330;-6.288;2023-12-04T03:27:37;2.13;;;0.80;;
74749;SDS011;63269;53.330;-6.288;2023-12-04T03:30:03;6.18;;;1.15;;
74749;SDS011;63269;53.330;-6.288;2023-12-04T03:32:28;1.58;;;0.80;;
74749;SDS011;63269;53.330;-6.288;2023-12-04T03:34:54;1.98;;;0.73;;
74749;SDS011;63269;53.330;-6.288;2023-12-04T03:37:19;2.05;;;0.63;;
74749;SDS011;63269;53.330;-6.288;2023-12-04T03:39:45;3.30;;;0.73;;
74749;SDS011;63269;53.330;-6.288;2023-12-04T03:42:10;2.92;;;0.88;;
74749;SDS011;63269;53.330;-6.288;2023-12-04T03:44:35;2.58;;;0.73;;
74749;SDS011;63269;53.330;-6.288;2023-12-04T03:47:01;1.83;;;0.57;;
74749;SDS011;63269;53.330;-6.288;2023-12-04T03:49:26;1.70;;;0.52;;
74749;SDS011;63269;53.330;-6.288;2023-12-04T03:51:51;3.38;;;0.65;;
74749;SDS011;63269;53.330;-6.288;2023-12-04T03:54:17;2.58;;;0.80;;
74749;SDS011;63269;53.330;-6.288;2023-12-04T03:56:42;4.03;;;1.73;;
74749;SDS011;63269;53.330;-6.288;2023-12-04T03:59:08;3.30;;;0.80;;
74749;SDS011;63269;53.330;-6.288;2023-12-04T04:01:35;1.85;;;0.70;;
74749;SDS011;63269;53.330;-6.288;2023-12-04T04:04:00;3.10;;;0.80;;
74749;SDS011;63269;53.330;-6.288;2023-12-04T04:06:25;3.10;;;0.80;;
74749;SDS011;63269;53.330;-6.288;2023-12-04T04:08:51;3.47;;;0.98;;
74749;SDS011;63269;53.330;-6.288;2023-12-04T04:11:17;2.90;;;1.00;;
74749;SDS011;63269;53.330;-6.288;2023-12-04T04:13:43;4.53;;;0.77;;
74749;SDS011;63269;53.330;-6.288;2023-12-04T04:16:12;1.27;;;0.60;;
74749;SDS011;63269;53.330;-6.288;2023-12-04T04:18:40;2.03;;;0.75;;
74749;SDS011;63269;53.330;-6.288;2023-12-04T04:21:05;1.77;;;0.70;;
74749;SDS011;63269;53.330;-6.288;2023-12-04T04:23:31;2.45;;;1.05;;
74749;SDS011;63269;53.330;-6.288;2023-12-04T04:25:56;1.48;;;0.60;;
74749;SDS011;63269;53.330;-6.288;2023-12-04T04:28:21;1.98;;;0.63;;
74749;SDS011;63269;53.330;-6.288;2023-12-04T04:30:47;1.55;;;0.60;;
74749;SDS011;63269;53.330;-6.288;2023-12-04T04:33:12;0.95;;;0.55;;
74749;SDS011;63269;53.330;-6.288;2023-12-04T04:35:37;2.45;;;0.82;;
74749;SDS011;63269;53.330;-6.288;2023-12-04T04:38:03;1.38;;;0.93;;
74749;SDS011;63269;53.330;-6.288;2023-12-04T04:40:29;1.35;;;0.60;;
74749;SDS011;63269;53.330;-6.288;2023-12-04T04:42:54;1.60;;;0.52;;
74749;SDS011;63269;53.330;-6.288;2023-12-04T04:45:20;2.83;;;0.70;;
74749;SDS011;63269;53.330;-6.288;2023-12-04T04:47:45;1.45;;;0.63;;
74749;SDS011;63269;53.330;-6.288;2023-12-04T04:50:11;1.95;;;1.10;;
74749;SDS011;63269;53.330;-6.288;2023-12-04T04:52:36;1.02;;;0.50;;
74749;SDS011;63269;53.330;-6.288;2023-12-04T04:55:01;1.60;;;0.95;;
74749;SDS011;63269;53.330;-6.288;2023-12-04T04:57:27;1.88;;;0.90;;
74749;SDS011;63269;53.330;-6.288;2023-12-04T04:59:52;1.33;;;0.50;;
74749;SDS011;63269;53.330;-6.288;2023-12-04T05:02:18;1.33;;;0.60;;
74749;SDS011;63269;53.330;-6.288;2023-12-04T05:04:43;1.83;;;0.80;;
74749;SDS011;63269;53.330;-6.288;2023-12-04T05:07:09;2.10;;;0.70;;
74749;SDS011;63269;53.330;-6.288;2023-12-04T05:09:34;1.25;;;0.70;;
74749;SDS011;63269;53.330;-6.288;2023-12-04T05:11:59;2.17;;;0.80;;
74749;SDS011;63269;53.330;-6.288;2023-12-04T05:14:25;1.73;;;0.68;;
74749;SDS011;63269;53.330;-6.288;2023-12-04T05:16:52;2.33;;;0.60;;
74749;SDS011;63269;53.330;-6.288;2023-12-04T05:19:17;2.42;;;0.50;;
74749;SDS011;63269;53.330;-6.288;2023-12-04T05:21:42;0.98;;;0.57;;
74749;SDS011;63269;53.330;-6.288;2023-12-04T05:24:08;1.90;;;0.50;;
74749;SDS011;63269;53.330;-6.288;2023-12-04T05:26:33;1.20;;;0.50;;
74749;SDS011;63269;53.330;-6.288;2023-12-04T05:28:59;1.27;;;0.60;;
74749;SDS011;63269;53.330;-6.288;2023-12-04T05:31:24;1.25;;;0.68;;
74749;SDS011;63269;53.330;-6.288;2023-12-04T05:33:49;2.85;;;0.70;;
74749;SDS011;63269;53.330;-6.288;2023-12-04T05:36:15;1.00;;;0.70;;
74749;SDS011;63269;53.330;-6.288;2023-12-04T05:38:40;1.73;;;0.90;;
74749;SDS011;63269;53.330;-6.288;2023-12-04T05:41:06;0.88;;;0.52;;
74749;SDS011;63269;53.330;-6.288;2023-12-04T05:43:31;2.00;;;0.77;;
74749;SDS011;63269;53.330;-6.288;2023-12-04T05:45:56;1.50;;;0.60;;
74749;SDS011;63269;53.330;-6.288;2023-12-04T05:48:22;2.25;;;1.00;;
74749;SDS011;63269;53.330;-6.288;2023-12-04T05:50:47;1.75;;;0.88;;
74749;SDS011;63269;53.330;-6.288;2023-12-04T05:53:13;0.95;;;0.73;;
74749;SDS011;63269;53.330;-6.288;2023-12-04T05:55:38;3.70;;;1.00;;
74749;SDS011;63269;53.330;-6.288;2023-12-04T05:58:04;1.45;;;0.60;;
74749;SDS011;63269;53.330;-6.288;2023-12-04T06:00:29;1.58;;;0.68;;
74749;SDS011;63269;53.330;-6.288;2023-12-04T06:02:54;1.90;;;0.70;;
74749;SDS011;63269;53.330;-6.288;2023-12-04T06:05:20;1.00;;;0.60;;
74749;SDS011;63269;53.330;-6.288;2023-12-04T06:07:45;1.15;;;0.75;;
74749;SDS011;63269;53.330;-6.288;2023-12-04T06:10:11;1.52;;;0.60;;
74749;SDS011;63269;53.330;-6.288;2023-12-04T06:12:36;2.30;;;0.80;;
74749;SDS011;63269;53.330;-6.288;2023-12-04T06:15:02;1.55;;;0.70;;
74749;SDS011;63269;53.330;-6.288;2023-12-04T06:17:27;1.10;;;0.85;;
74749;SDS011;63269;53.330;-6.288;2023-12-04T06:19:53;2.58;;;0.80;;
74749;SDS011;63269;53.330;-6.288;2023-12-04T06:22:19;0.93;;;0.70;;
74749;SDS011;63269;53.330;-6.288;2023-12-04T06:24:46;1.17;;;0.80;;
74749;SDS011;63269;53.330;-6.288;2023-12-04T06:27:14;1.35;;;0.70;;
74749;SDS011;63269;53.330;-6.288;2023-12-04T06:29:41;2.95;;;1.15;;
74749;SDS011;63269;53.330;-6.288;2023-12-04T06:32:07;0.95;;;0.80;;
74749;SDS011;63269;53.330;-6.288;2023-12-04T06:34:33;1.40;;;1.05;;
74749;SDS011;63269;53.330;-6.288;2023-12-04T06:36:59;1.90;;;0.85;;
74749;SDS011;63269;53.330;-6.288;2023-12-04T06:39:27;1.30;;;0.80;;
74749;SDS011;63269;53.330;-6.288;2023-12-04T06:41:58;2.15;;;0.70;;
74749;SDS011;63269;53.330;-6.288;2023-12-04T06:44:24;2.40;;;1.00;;
74749;SDS011;63269;53.330;-6.288;2023-12-04T06:46:49;1.02;;;0.60;;
74749;SDS011;63269;53.330;-6.288;2023-12-04T06:49:17;2.15;;;0.77;;
74749;SDS011;63269;53.330;-6.288;2023-12-04T06:51:42;2.33;;;1.00;;
74749;SDS011;63269;53.330;-6.288;2023-12-04T06:54:08;2.00;;;0.80;;
74749;SDS011;63269;53.330;-6.288;2023-12-04T06:56:33;1.75;;;0.90;;
74749;SDS011;63269;53.330;-6.288;2023-12-04T06:58:59;1.10;;;0.57;;
74749;SDS011;63269;53.330;-6.288;2023-12-04T07:01:24;1.38;;;0.77;;
74749;SDS011;63269;53.330;-6.288;2023-12-04T07:03:50;1.58;;;1.00;;
74749;SDS011;63269;53.330;-6.288;2023-12-04T07:06:15;0.90;;;0.70;;
74749;SDS011;63269;53.330;-6.288;2023-12-04T07:08:41;0.90;;;0.70;;
74749;SDS011;63269;53.330;-6.288;2023-12-04T07:11:06;1.50;;;0.90;;
74749;SDS011;63269;53.330;-6.288;2023-12-04T07:13:33;1.13;;;0.82;;
74749;SDS011;63269;53.330;-6.288;2023-12-04T07:15:58;2.10;;;0.95;;
74749;SDS011;63269;53.330;-6.288;2023-12-04T07:18:24;1.55;;;1.15;;
74749;SDS011;63269;53.330;-6.288;2023-12-04T07:20:50;1.05;;;0.70;;
74749;SDS011;63269;53.330;-6.288;2023-12-04T07:23:16;1.25;;;0.82;;
74749;SDS011;63269;53.330;-6.288;2023-12-04T07:25:41;1.30;;;0.73;;
74749;SDS011;63269;53.330;-6.288;2023-12-04T07:28:07;1.25;;;0.77;;
74749;SDS011;63269;53.330;-6.288;2023-12-04T07:30:33;1.48;;;0.90;;
74749;SDS011;63269;53.330;-6.288;2023-12-04T07:32:58;1.55;;;0.70;;
74749;SDS011;63269;53.330;-6.288;2023-12-04T07:35:24;1.75;;;0.90;;
74749;SDS011;63269;53.330;-6.288;2023-12-04T07:37:50;1.58;;;0.73;;
74749;SDS011;63269;53.330;-6.288;2023-12-04T07:40:16;7.50;;;1.00;;
74749;SDS011;63269;53.330;-6.288;2023-12-04T07:42:41;1.52;;;1.00;;
74749;SDS011;63269;53.330;-6.288;2023-12-04T07:45:08;0.88;;;0.70;;
74749;SDS011;63269;53.330;-6.288;2023-12-04T07:47:35;2.80;;;0.88;;
74749;SDS011;63269;53.330;-6.288;2023-12-04T07:50:01;1.13;;;0.68;;
74749;SDS011;63269;53.330;-6.288;2023-12-04T07:52:26;1.20;;;0.85;;
74749;SDS011;63269;53.330;-6.288;2023-12-04T07:54:51;1.42;;;0.80;;
74749;SDS011;63269;53.330;-6.288;2023-12-04T07:57:17;3.13;;;1.10;;
74749;SDS011;63269;53.330;-6.288;2023-12-04T07:59:43;2.42;;;0.77;;
74749;SDS011;63269;53.330;-6.288;2023-12-04T08:02:08;2.13;;;0.68;;
74749;SDS011;63269;53.330;-6.288;2023-12-04T08:04:34;2.78;;;0.93;;
74749;SDS011;63269;53.330;-6.288;2023-12-04T08:06:59;1.30;;;0.80;;
74749;SDS011;63269;53.330;-6.288;2023-12-04T08:09:25;1.27;;;0.77;;
74749;SDS011;63269;53.330;-6.288;2023-12-04T08:11:50;1.65;;;0.70;;
74749;SDS011;63269;53.330;-6.288;2023-12-04T08:14:15;1.63;;;0.70;;
74749;SDS011;63269;53.330;-6.288;2023-12-04T08:16:41;1.25;;;0.88;;
74749;SDS011;63269;53.330;-6.288;2023-12-04T08:19:06;1.23;;;0.80;;
74749;SDS011;63269;53.330;-6.288;2023-12-04T08:21:32;1.40;;;0.80;;
74749;SDS011;63269;53.330;-6.288;2023-12-04T08:23:57;1.70;;;0.63;;
74749;SDS011;63269;53.330;-6.288;2023-12-04T08:26:23;3.53;;;1.20;;
74749;SDS011;63269;53.330;-6.288;2023-12-04T08:28:50;1.13;;;0.65;;
74749;SDS011;63269;53.330;-6.288;2023-12-04T08:31:16;2.20;;;0.63;;
74749;SDS011;63269;53.330;-6.288;2023-12-04T08:33:42;1.35;;;0.65;;
74749;SDS011;63269;53.330;-6.288;2023-12-04T08:36:07;1.30;;;0.80;;
74749;SDS011;63269;53.330;-6.288;2023-12-04T08:38:33;1.30;;;0.65;;
74749;SDS011;63269;53.330;-6.288;2023-12-04T08:40:59;1.67;;;0.70;;
74749;SDS011;63269;53.330;-6.288;2023-12-04T08:43:24;1.27;;;0.70;;
74749;SDS011;63269;53.330;-6.288;2023-12-04T08:45:50;1.85;;;0.88;;
74749;SDS011;63269;53.330;-6.288;2023-12-04T08:48:15;1.67;;;0.70;;
74749;SDS011;63269;53.330;-6.288;2023-12-04T08:50:40;1.00;;;0.55;;
74749;SDS011;63269;53.330;-6.288;2023-12-04T08:53:06;3.30;;;0.75;;
74749;SDS011;63269;53.330;-6.288;2023-12-04T08:55:31;1.40;;;0.77;;
74749;SDS011;63269;53.330;-6.288;2023-12-04T08:57:57;1.50;;;1.38;;
74749;SDS011;63269;53.330;-6.288;2023-12-04T09:00:22;1.33;;;0.77;;
74749;SDS011;63269;53.330;-6.288;2023-12-04T09:02:48;1.63;;;0.98;;
74749;SDS011;63269;53.330;-6.288;2023-12-04T09:05:13;1.88;;;0.77;;
74749;SDS011;63269;53.330;-6.288;2023-12-04T09:07:39;1.70;;;1.20;;
74749;SDS011;63269;53.330;-6.288;2023-12-04T09:10:05;2.20;;;0.70;;
74749;SDS011;63269;53.330;-6.288;2023-12-04T09:12:31;1.60;;;0.88;;
74749;SDS011;63269;53.330;-6.288;2023-12-04T09:14:56;1.88;;;0.85;;
74749;SDS011;63269;53.330;-6.288;2023-12-04T09:17:22;2.28;;;1.02;;
74749;SDS011;63269;53.330;-6.288;2023-12-04T09:19:47;1.52;;;1.10;;
74749;SDS011;63269;53.330;-6.288;2023-12-04T09:22:13;2.03;;;1.05;;
74749;SDS011;63269;53.330;-6.288;2023-12-04T09:24:38;1.08;;;0.90;;
74749;SDS011;63269;53.330;-6.288;2023-12-04T09:27:04;2.08;;;0.90;;
74749;SDS011;63269;53.330;-6.288;2023-12-04T09:29:31;2.40;;;1.27;;
74749;SDS011;63269;53.330;-6.288;2023-12-04T09:31:57;1.70;;;1.00;;
74749;SDS011;63269;53.330;-6.288;2023-12-04T09:34:22;2.70;;;1.05;;
74749;SDS011;63269;53.330;-6.288;2023-12-04T09:36:48;2.28;;;1.02;;
74749;SDS011;63269;53.330;-6.288;2023-12-04T09:39:13;2.30;;;0.98;;
74749;SDS011;63269;53.330;-6.288;2023-12-04T09:41:40;1.25;;;0.82;;
74749;SDS011;63269;53.330;-6.288;2023-12-04T09:44:07;1.13;;;0.77;;
74749;SDS011;63269;53.330;-6.288;2023-12-04T09:46:33;1.75;;;1.05;;
74749;SDS011;63269;53.330;-6.288;2023-12-04T09:48:59;2.05;;;1.20;;
74749;SDS011;63269;53.330;-6.288;2023-12-04T09:51:26;1.08;;;0.80;;
74749;SDS011;63269;53.330;-6.288;2023-12-04T09:53:52;1.88;;;1.20;;
74749;SDS011;63269;53.330;-6.288;2023-12-04T09:56:20;2.08;;;1.30;;
74749;SDS011;63269;53.330;-6.288;2023-12-04T09:58:47;1.60;;;1.15;;
74749;SDS011;63269;53.330;-6.288;2023-12-04T10:01:17;1.75;;;0.90;;
74749;SDS011;63269;53.330;-6.288;2023-12-04T10:03:43;1.50;;;0.90;;
74749;SDS011;63269;53.330;-6.288;2023-12-04T10:06:09;1.65;;;0.88;;
74749;SDS011;63269;53.330;-6.288;2023-12-04T10:08:35;1.48;;;1.10;;
74749;SDS011;63269;53.330;-6.288;2023-12-04T10:11:01;2.42;;;1.10;;
74749;SDS011;63269;53.330;-6.288;2023-12-04T10:13:27;2.53;;;1.13;;
74749;SDS011;63269;53.330;-6.288;2023-12-04T10:15:52;1.58;;;0.85;;
74749;SDS011;63269;53.330;-6.288;2023-12-04T10:18:27;3.30;;;1.20;;
74749;SDS011;63269;53.330;-6.288;2023-12-04T10:20:56;1.38;;;1.00;;
74749;SDS011;63269;53.330;-6.288;2023-12-04T10:23:23;1.98;;;0.88;;
74749;SDS011;63269;53.330;-6.288;2023-12-04T10:26:02;1.65;;;1.00;;
74749;SDS011;63269;53.330;-6.288;2023-12-04T10:28:28;1.48;;;0.90;;
74749;SDS011;63269;53.330;-6.288;2023-12-04T10:30:53;3.28;;;1.08;;
74749;SDS011;63269;53.330;-6.288;2023-12-04T10:33:19;1.35;;;0.80;;
74749;SDS011;63269;53.330;-6.288;2023-12-04T10:35:46;1.85;;;0.98;;
74749;SDS011;63269;53.330;-6.288;2023-12-04T10:38:12;3.40;;;0.98;;
74749;SDS011;63269;53.330;-6.288;2023-12-04T10:40:39;2.28;;;0.90;;
74749;SDS011;63269;53.330;-6.288;2023-12-04T10:43:21;4.70;;;1.00;;
74749;SDS011;63269;53.330;-6.288;2023-12-04T10:45:49;1.10;;;0.88;;
74749;SDS011;63269;53.330;-6.288;2023-12-04T10:48:15;2.13;;;0.90;;
74749;SDS011;63269;53.330;-6.288;2023-12-04T10:50:43;2.30;;;0.85;;
74749;SDS011;63269;53.330;-6.288;2023-12-04T10:53:12;2.70;;;0.73;;
74749;SDS011;63269;53.330;-6.288;2023-12-04T10:55:39;4.00;;;1.42;;
74749;SDS011;63269;53.330;-6.288;2023-12-04T10:58:06;1.55;;;0.88;;
74749;SDS011;63269;53.330;-6.288;2023-12-04T11:00:34;1.90;;;0.90;;
74749;SDS011;63269;53.330;-6.288;2023-12-04T11:03:08;1.67;;;0.95;;
74749;SDS011;63269;53.330;-6.288;2023-12-04T11:05:40;1.30;;;0.80;;
74749;SDS011;63269;53.330;-6.288;2023-12-04T11:08:07;1.35;;;0.80;;
74749;SDS011;63269;53.330;-6.288;2023-12-04T11:10:42;1.45;;;0.70;;
74749;SDS011;63269;53.330;-6.288;2023-12-04T11:13:15;2.10;;;0.88;;
74749;SDS011;63269;53.330;-6.288;2023-12-04T11:15:47;1.35;;;0.68;;
74749;SDS011;63269;53.330;-6.288;2023-12-04T11:18:15;2.00;;;0.73;;
74749;SDS011;63269;53.330;-6.288;2023-12-04T11:20:53;1.38;;;0.90;;
74749;SDS011;63269;53.330;-6.288;2023-12-04T11:23:22;2.15;;;0.90;;
74749;SDS011;63269;53.330;-6.288;2023-12-04T11:25:48;2.05;;;1.00;;
74749;SDS011;63269;53.330;-6.288;2023-12-04T11:28:14;3.35;;;0.93;;
74749;SDS011;63269;53.330;-6.288;2023-12-04T11:30:41;3.47;;;1.10;;
74749;SDS011;63269;53.330;-6.288;2023-12-04T11:33:07;2.90;;;1.20;;
74749;SDS011;63269;53.330;-6.288;2023-12-04T11:35:34;7.43;;;1.20;;
74749;SDS011;63269;53.330;-6.288;2023-12-04T11:37:59;3.15;;;1.17;;
74749;SDS011;63269;53.330;-6.288;2023-12-04T11:40:25;4.45;;;1.05;;
74749;SDS011;63269;53.330;-6.288;2023-12-04T11:42:51;3.35;;;1.20;;
74749;SDS011;63269;53.330;-6.288;2023-12-04T11:45:17;5.05;;;1.30;;
74749;SDS011;63269;53.330;-6.288;2023-12-04T11:47:55;2.35;;;1.40;;
74749;SDS011;63269;53.330;-6.288;2023-12-04T11:50:23;3.75;;;1.63;;
74749;SDS011;63269;53.330;-6.288;2023-12-04T11:52:50;26.42;;;8.40;;
74749;SDS011;63269;53.330;-6.288;2023-12-04T11:55:25;72.32;;;20.60;;
74749;SDS011;63269;53.330;-6.288;2023-12-04T11:57:51;77.30;;;34.95;;
74749;SDS011;63269;53.330;-6.288;2023-12-04T12:00:20;42.28;;;18.33;;
74749;SDS011;63269;53.330;-6.288;2023-12-04T12:05:21;40.75;;;13.20;;
74749;SDS011;63269;53.330;-6.288;2023-12-04T12:07:47;28.80;;;12.52;;
74749;SDS011;63269;53.330;-6.288;2023-12-04T12:10:13;24.08;;;10.25;;
74749;SDS011;63269;53.330;-6.288;2023-12-04T12:12:45;26.50;;;10.55;;
74749;SDS011;63269;53.330;-6.288;2023-12-04T12:15:12;21.38;;;9.65;;
74749;SDS011;63269;53.330;-6.288;2023-12-04T12:17:38;20.27;;;7.93;;
74749;SDS011;63269;53.330;-6.288;2023-12-04T12:20:05;28.08;;;8.93;;
74749;SDS011;63269;53.330;-6.288;2023-12-04T12:22:33;31.15;;;8.57;;
74749;SDS011;63269;53.330;-6.288;2023-12-04T12:24:59;24.65;;;8.05;;
74749;SDS011;63269;53.330;-6.288;2023-12-04T12:27:24;16.10;;;7.82;;
74749;SDS011;63269;53.330;-6.288;2023-12-04T12:29:50;17.38;;;7.03;;
74749;SDS011;63269;53.330;-6.288;2023-12-04T12:32:15;18.15;;;6.20;;
74749;SDS011;63269;53.330;-6.288;2023-12-04T12:34:41;17.45;;;6.53;;
74749;SDS011;63269;53.330;-6.288;2023-12-04T12:37:07;15.30;;;6.05;;
74749;SDS011;63269;53.330;-6.288;2023-12-04T12:39:33;16.95;;;6.50;;
74749;SDS011;63269;53.330;-6.288;2023-12-04T12:42:00;12.18;;;5.22;;
74749;SDS011;63269;53.330;-6.288;2023-12-04T12:44:26;13.80;;;5.72;;
74749;SDS011;63269;53.330;-6.288;2023-12-04T12:46:52;15.32;;;6.03;;
74749;SDS011;63269;53.330;-6.288;2023-12-04T12:49:18;13.43;;;5.18;;
74749;SDS011;63269;53.330;-6.288;2023-12-04T12:51:46;11.65;;;4.65;;
74749;SDS011;63269;53.330;-6.288;2023-12-04T12:54:12;12.40;;;4.72;;
74749;SDS011;63269;53.330;-6.288;2023-12-04T12:56:38;8.95;;;4.20;;
74749;SDS011;63269;53.330;-6.288;2023-12-04T12:59:04;9.85;;;3.83;;
74749;SDS011;63269;53.330;-6.288;2023-12-04T13:01:31;8.52;;;3.90;;
74749;SDS011;63269;53.330;-6.288;2023-12-04T13:03:57;7.05;;;3.53;;
74749;SDS011;63269;53.330;-6.288;2023-12-04T13:06:22;12.02;;;3.58;;
74749;SDS011;63269;53.330;-6.288;2023-12-04T13:08:48;9.48;;;3.38;;
74749;SDS011;63269;53.330;-6.288;2023-12-04T13:11:13;8.15;;;3.78;;
74749;SDS011;63269;53.330;-6.288;2023-12-04T13:13:38;6.38;;;3.20;;
74749;SDS011;63269;53.330;-6.288;2023-12-04T13:16:05;8.05;;;3.75;;
74749;SDS011;63269;53.330;-6.288;2023-12-04T13:18:31;6.68;;;3.08;;
74749;SDS011;63269;53.330;-6.288;2023-12-04T13:21:00;8.55;;;3.20;;
74749;SDS011;63269;53.330;-6.288;2023-12-04T13:23:25;6.60;;;2.65;;
74749;SDS011;63269;53.330;-6.288;2023-12-04T13:25:51;8.13;;;3.25;;
74749;SDS011;63269;53.330;-6.288;2023-12-04T13:28:16;6.00;;;2.72;;
74749;SDS011;63269;53.330;-6.288;2023-12-04T13:30:42;6.38;;;2.78;;
74749;SDS011;63269;53.330;-6.288;2023-12-04T13:33:07;5.57;;;2.85;;
74749;SDS011;63269;53.330;-6.288;2023-12-04T13:35:33;6.40;;;2.67;;
74749;SDS011;63269;53.330;-6.288;2023-12-04T13:37:58;5.63;;;2.65;;
74749;SDS011;63269;53.330;-6.288;2023-12-04T13:40:24;5.10;;;2.65;;
74749;SDS011;63269;53.330;-6.288;2023-12-04T13:42:53;3.92;;;1.83;;
74749;SDS011;63269;53.330;-6.288;2023-12-04T13:45:57;4.32;;;2.38;;
74749;SDS011;63269;53.330;-6.288;2023-12-04T13:48:23;5.40;;;2.15;;
74749;SDS011;63269;53.330;-6.288;2023-12-04T13:50:48;4.47;;;2.05;;
74749;SDS011;63269;53.330;-6.288;2023-12-04T13:53:15;5.00;;;2.03;;
74749;SDS011;63269;53.330;-6.288;2023-12-04T13:55:44;7.47;;;2.22;;
74749;SDS011;63269;53.330;-6.288;2023-12-04T13:58:18;3.67;;;2.03;;
74749;SDS011;63269;53.330;-6.288;2023-12-04T14:01:15;4.28;;;1.95;;
74749;SDS011;63269;53.330;-6.288;2023-12-04T14:03:47;4.55;;;2.13;;
74749;SDS011;63269;53.330;-6.288;2023-12-04T14:06:13;1.92;;;1.52;;
74749;SDS011;63269;53.330;-6.288;2023-12-04T14:08:39;4.60;;;1.90;;
74749;SDS011;63269;53.330;-6.288;2023-12-04T14:11:05;3.47;;;1.45;;
74749;SDS011;63269;53.330;-6.288;2023-12-04T14:13:35;4.22;;;1.60;;
74749;SDS011;63269;53.330;-6.288;2023-12-04T14:16:00;4.25;;;2.15;;
74749;SDS011;63269;53.330;-6.288;2023-12-04T14:18:28;3.92;;;1.45;;
74749;SDS011;63269;53.330;-6.288;2023-12-04T14:20:55;2.88;;;1.42;;
74749;SDS011;63269;53.330;-6.288;2023-12-04T14:23:21;3.03;;;1.58;;
74749;SDS011;63269;53.330;-6.288;2023-12-04T14:25:47;3.25;;;1.73;;
74749;SDS011;63269;53.330;-6.288;2023-12-04T14:28:13;3.70;;;1.58;;
74749;SDS011;63269;53.330;-6.288;2023-12-04T14:30:38;2.58;;;1.50;;